createdAt,value
2018-09-19T00:01:05.833Z,1.70
2018-09-19T00:03:34.261Z,1.50
2018-09-19T00:06:02.777Z,2.17
2018-09-19T00:08:31.239Z,1.63
2018-09-19T00:10:59.713Z,1.97
2018-09-19T00:13:28.134Z,1.33
2018-09-19T00:15:56.579Z,1.40
2018-09-19T00:18:25.007Z,1.30
2018-09-19T00:20:53.485Z,1.40
2018-09-19T00:23:21.898Z,1.37
2018-09-19T00:25:50.349Z,1.77
2018-09-19T00:28:18.753Z,1.63
2018-09-19T00:30:47.227Z,1.50
2018-09-19T00:33:15.669Z,1.50
2018-09-19T00:35:44.170Z,1.73
2018-09-19T00:38:12.618Z,1.30
2018-09-19T00:40:41.072Z,1.17
2018-09-19T00:43:09.519Z,1.40
2018-09-19T00:45:38.127Z,1.37
2018-09-19T00:48:06.849Z,1.27
2018-09-19T00:50:35.299Z,1.37
2018-09-19T00:53:03.777Z,1.30
2018-09-19T00:55:32.194Z,1.60
2018-09-19T00:58:00.737Z,1.50
2018-09-19T01:00:29.211Z,1.63
2018-09-19T01:02:57.672Z,1.40
2018-09-19T01:05:26.121Z,1.50
2018-09-19T01:07:54.549Z,1.47
2018-09-19T01:10:22.993Z,1.50
2018-09-19T01:12:51.433Z,1.63
2018-09-19T01:15:19.841Z,1.77
2018-09-19T01:17:48.282Z,1.43
2018-09-19T01:20:16.680Z,1.57
2018-09-19T01:22:45.153Z,1.60
2018-09-19T01:25:13.559Z,1.67
2018-09-19T01:27:41.997Z,1.60
2018-09-19T01:30:10.426Z,2.00
2018-09-19T01:32:38.881Z,1.60
2018-09-19T01:35:07.302Z,1.80
2018-09-19T01:37:35.718Z,1.60
2018-09-19T01:40:04.355Z,1.90
2018-09-19T01:42:32.759Z,1.83
2018-09-19T01:45:02.050Z,2.10
2018-09-19T01:47:30.474Z,1.80
2018-09-19T01:49:58.907Z,1.67
2018-09-19T01:52:27.311Z,1.83
2018-09-19T01:54:55.735Z,1.40
2018-09-19T01:57:24.145Z,1.43
2018-09-19T01:59:52.611Z,1.50
2018-09-19T02:02:21.068Z,1.43
2018-09-19T02:04:49.510Z,1.90
2018-09-19T02:07:17.912Z,1.80
2018-09-19T02:09:46.349Z,1.50
2018-09-19T02:12:14.784Z,1.37
2018-09-19T02:14:43.222Z,1.80
2018-09-19T02:17:11.621Z,1.33
2018-09-19T02:19:40.068Z,1.40
2018-09-19T02:22:08.537Z,1.50
2018-09-19T02:24:36.987Z,1.47
2018-09-19T02:27:05.417Z,2.00
2018-09-19T02:29:33.888Z,1.57
2018-09-19T02:32:02.703Z,1.30
2018-09-19T02:34:31.119Z,1.50
2018-09-19T02:36:59.570Z,1.90
2018-09-19T02:39:27.974Z,1.63
2018-09-19T02:41:56.422Z,1.20
2018-09-19T02:44:24.844Z,1.60
2018-09-19T02:46:53.281Z,1.53
2018-09-19T02:49:21.705Z,1.50
2018-09-19T02:51:50.164Z,1.70
2018-09-19T02:54:18.570Z,1.53
2018-09-19T02:56:47.087Z,1.63
2018-09-19T02:59:15.501Z,1.70
2018-09-19T03:01:43.955Z,1.60
2018-09-19T03:04:12.351Z,2.10
2018-09-19T03:06:40.782Z,1.70
2018-09-19T03:09:09.193Z,1.90
2018-09-19T03:11:37.621Z,1.73
2018-09-19T03:14:06.030Z,1.73
2018-09-19T03:16:40.578Z,1.67
2018-09-19T03:19:09.020Z,1.93
2018-09-19T03:21:37.541Z,2.17
2018-09-19T03:24:05.989Z,2.03
2018-09-19T03:26:34.442Z,1.90
2018-09-19T03:29:03.646Z,2.13
2018-09-19T03:31:32.132Z,1.97
2018-09-19T03:34:00.601Z,1.87
2018-09-19T03:36:29.065Z,2.03
2018-09-19T03:38:57.533Z,1.50
2018-09-19T03:41:26.079Z,1.97
2018-09-19T03:43:54.579Z,1.80
2018-09-19T03:46:23.042Z,2.00
2018-09-19T03:48:51.500Z,1.80
2018-09-19T03:51:19.957Z,2.03
2018-09-19T03:53:48.413Z,1.80
2018-09-19T03:56:16.879Z,2.10
2018-09-19T03:58:45.516Z,2.10
2018-09-19T04:01:13.936Z,2.20
2018-09-19T04:03:42.462Z,1.80
2018-09-19T04:06:10.906Z,1.80
2018-09-19T04:08:39.345Z,1.80
2018-09-19T04:11:07.855Z,1.97
2018-09-19T04:13:36.341Z,2.00
2018-09-19T04:16:04.779Z,1.90
2018-09-19T04:18:33.273Z,1.73
2018-09-19T04:21:02.621Z,1.67
2018-09-19T04:23:31.124Z,1.63
2018-09-19T04:25:59.570Z,1.80
2018-09-19T04:28:28.021Z,1.80
2018-09-19T04:30:56.510Z,1.93
2018-09-19T04:33:24.946Z,2.27
2018-09-19T04:35:53.411Z,2.00
2018-09-19T04:38:21.837Z,2.33
2018-09-19T04:40:51.444Z,2.10
2018-09-19T04:43:19.869Z,1.90
2018-09-19T04:45:48.562Z,2.30
2018-09-19T04:48:17.064Z,1.93
2018-09-19T04:50:45.554Z,2.10
2018-09-19T04:53:13.985Z,2.00
2018-09-19T04:55:42.428Z,2.00
2018-09-19T04:58:10.879Z,2.17
2018-09-19T05:00:39.336Z,2.50
2018-09-19T05:03:07.737Z,2.00
2018-09-19T05:05:36.277Z,2.40
2018-09-19T05:08:04.679Z,2.50
2018-09-19T05:10:33.188Z,2.90
2018-09-19T05:13:02.049Z,2.67
2018-09-19T05:15:30.568Z,2.40
2018-09-19T05:17:59.075Z,2.27
2018-09-19T05:20:27.499Z,2.63
2018-09-19T05:22:56.039Z,2.40
2018-09-19T05:25:24.425Z,2.30
2018-09-19T05:27:52.899Z,2.47
2018-09-19T05:30:21.319Z,2.83
2018-09-19T05:32:49.788Z,2.57
2018-09-19T05:35:18.188Z,2.80
2018-09-19T05:37:46.652Z,3.20
2018-09-19T05:40:15.101Z,2.77
2018-09-19T05:42:43.607Z,2.97
2018-09-19T05:45:12.016Z,2.60
2018-09-19T05:47:40.682Z,2.70
2018-09-19T05:50:09.276Z,2.53
2018-09-19T05:52:37.736Z,2.60
2018-09-19T05:55:06.193Z,2.73
2018-09-19T05:57:36.248Z,2.97
2018-09-19T06:00:05.328Z,3.10
2018-09-19T06:02:33.866Z,3.17
2018-09-19T06:05:02.372Z,3.47
2018-09-19T06:07:30.821Z,3.73
2018-09-19T06:09:59.258Z,5.07
2018-09-19T06:12:27.682Z,3.23
2018-09-19T06:14:56.137Z,3.20
2018-09-19T06:17:24.699Z,3.27
2018-09-19T06:19:53.181Z,3.67
2018-09-19T06:22:21.644Z,3.97
2018-09-19T06:24:50.097Z,3.30
2018-09-19T06:27:18.498Z,3.47
2018-09-19T06:29:46.974Z,3.50
2018-09-19T06:32:15.374Z,3.17
2018-09-19T06:34:43.834Z,3.23
2018-09-19T06:37:12.337Z,3.30
2018-09-19T06:39:41.195Z,3.57
2018-09-19T06:42:09.603Z,4.33
2018-09-19T06:44:38.121Z,4.03
2018-09-19T06:47:06.550Z,4.07
2018-09-19T06:49:34.986Z,3.10
2018-09-19T06:52:03.710Z,3.50
2018-09-19T06:54:32.151Z,3.63
2018-09-19T06:57:00.592Z,3.70
2018-09-19T06:59:30.297Z,3.67
2018-09-19T07:01:58.713Z,3.47
2018-09-19T07:04:27.197Z,3.30
2018-09-19T07:06:55.679Z,3.40
2018-09-19T07:09:24.124Z,3.90
2018-09-19T07:11:52.616Z,4.23
2018-09-19T07:14:21.038Z,4.10
2018-09-19T07:16:49.474Z,4.03
2018-09-19T07:19:17.869Z,3.90
2018-09-19T07:21:46.383Z,3.90
2018-09-19T07:24:14.890Z,4.30
2018-09-19T07:26:43.375Z,3.60
2018-09-19T07:29:11.812Z,3.83
2018-09-19T07:31:40.283Z,3.90
2018-09-19T07:34:08.724Z,3.80
2018-09-19T07:36:37.190Z,3.77
2018-09-19T07:39:08.562Z,4.27
2018-09-19T07:41:37.032Z,4.07
2018-09-19T07:44:05.460Z,4.40
2018-09-19T07:46:34.019Z,4.60
2018-09-19T07:49:03.026Z,4.50
2018-09-19T07:51:31.542Z,4.50
2018-09-19T07:53:59.974Z,5.03
2018-09-19T07:56:28.511Z,4.95
2018-09-19T07:58:57.281Z,4.33
2018-09-19T08:01:25.757Z,4.53
2018-09-19T08:03:54.250Z,5.62
2018-09-19T08:06:22.661Z,5.20
2018-09-19T08:08:51.118Z,5.92
2018-09-19T08:11:19.566Z,5.03
2018-09-19T08:13:48.073Z,5.08
2018-09-19T08:16:16.535Z,5.08
2018-09-19T08:18:44.959Z,5.58
2018-09-19T08:21:13.390Z,5.72
2018-09-19T08:23:41.841Z,6.35
2018-09-19T08:26:10.286Z,5.92
2018-09-19T08:28:38.801Z,5.50
2018-09-19T08:31:07.225Z,6.15
2018-09-19T08:33:35.701Z,5.25
2018-09-19T08:36:04.205Z,5.45
2018-09-19T08:38:32.710Z,5.30
2018-09-19T08:41:01.208Z,5.10
2018-09-19T08:43:29.656Z,5.45
2018-09-19T08:45:58.149Z,4.90
2018-09-19T08:48:26.609Z,4.80
2018-09-19T08:50:55.144Z,4.92
2018-09-19T08:53:23.597Z,5.00
2018-09-19T08:55:52.096Z,4.92
2018-09-19T08:58:20.556Z,4.30
2018-09-19T09:00:49.034Z,5.70
2018-09-19T09:03:17.513Z,4.90
2018-09-19T09:05:46.027Z,4.85
2018-09-19T09:08:14.447Z,4.72
2018-09-19T09:10:43.153Z,4.70
2018-09-19T09:13:11.550Z,4.45
2018-09-19T09:15:40.033Z,4.75
2018-09-19T09:18:08.405Z,4.85
2018-09-19T09:20:36.820Z,4.12
2018-09-19T09:23:05.238Z,5.12
2018-09-19T09:25:33.674Z,4.78
2018-09-19T09:28:02.066Z,4.62
2018-09-19T09:30:30.486Z,4.15
2018-09-19T09:32:58.874Z,5.22
2018-09-19T09:35:27.289Z,4.40
2018-09-19T09:37:55.692Z,4.45
2018-09-19T09:40:24.179Z,3.90
2018-09-19T09:42:52.527Z,4.08
2018-09-19T09:45:20.977Z,4.47
2018-09-19T09:47:49.458Z,4.37
2018-09-19T09:50:18.065Z,4.75
2018-09-19T09:52:46.467Z,4.83
2018-09-19T09:55:14.889Z,5.45
2018-09-19T09:57:43.352Z,6.00
2018-09-19T10:00:11.757Z,5.58
2018-09-19T10:02:40.225Z,5.08
2018-09-19T10:05:08.635Z,5.05
2018-09-19T10:07:37.083Z,5.15
2018-09-19T10:10:05.508Z,5.20
2018-09-19T10:12:33.945Z,5.10
2018-09-19T10:15:02.359Z,5.45
2018-09-19T10:17:30.789Z,6.30
2018-09-19T10:19:59.186Z,6.30
2018-09-19T10:22:27.657Z,6.10
2018-09-19T10:24:56.050Z,6.12
2018-09-19T10:27:24.505Z,5.75
2018-09-19T10:29:52.943Z,6.20
2018-09-19T10:32:21.385Z,5.83
2018-09-19T10:34:49.789Z,5.60
2018-09-19T10:37:18.235Z,5.95
2018-09-19T10:39:46.649Z,5.50
2018-09-19T10:42:15.095Z,5.47
2018-09-19T10:44:43.590Z,5.65
2018-09-19T10:47:12.099Z,5.80
2018-09-19T10:49:40.563Z,5.90
2018-09-19T10:52:08.960Z,5.55
2018-09-19T10:54:37.390Z,5.47
2018-09-19T10:57:05.847Z,5.35
2018-09-19T10:59:34.452Z,6.30
2018-09-19T11:02:03.653Z,6.22
2018-09-19T11:04:32.457Z,6.20
2018-09-19T11:07:00.882Z,7.05
2018-09-19T11:09:29.321Z,6.85
2018-09-19T11:11:57.722Z,6.97
2018-09-19T11:14:26.206Z,6.50
2018-09-19T11:16:54.658Z,7.17
2018-09-19T11:19:23.109Z,6.20
2018-09-19T11:21:51.573Z,5.75
2018-09-19T11:24:20.003Z,6.97
2018-09-19T11:26:48.414Z,6.40
2018-09-19T11:29:16.861Z,6.33
2018-09-19T11:31:45.278Z,6.12
2018-09-19T11:34:13.715Z,6.50
2018-09-19T11:36:42.118Z,6.40
2018-09-19T11:39:12.298Z,6.83
2018-09-19T11:41:41.045Z,5.83
2018-09-19T11:44:09.621Z,6.25
2018-09-19T11:46:38.097Z,5.97
2018-09-19T11:49:06.602Z,6.05
2018-09-19T11:51:35.117Z,6.15
2018-09-19T11:54:03.522Z,6.20
2018-09-19T11:56:31.945Z,6.35
2018-09-19T11:59:00.406Z,6.08
2018-09-19T12:01:28.863Z,6.15
2018-09-19T12:03:57.255Z,6.20
2018-09-19T12:06:25.693Z,5.92
2018-09-19T12:08:54.094Z,5.78
2018-09-19T12:11:22.520Z,5.70
2018-09-19T12:13:50.923Z,6.40
2018-09-19T12:16:19.386Z,5.55
2018-09-19T12:18:47.794Z,5.95
2018-09-19T12:21:16.278Z,5.53
2018-09-19T12:23:44.707Z,5.50
2018-09-19T12:26:13.194Z,5.83
2018-09-19T12:28:41.577Z,6.22
2018-09-19T12:31:10.043Z,5.97
2018-09-19T12:33:38.465Z,6.53
2018-09-19T12:36:07.333Z,6.60
2018-09-19T12:38:35.777Z,5.80
2018-09-19T12:41:04.555Z,5.37
2018-09-19T12:43:32.978Z,6.45
2018-09-19T12:46:01.816Z,5.85
2018-09-19T12:48:30.309Z,6.00
2018-09-19T12:50:58.688Z,6.05
2018-09-19T12:53:27.155Z,5.92
2018-09-19T12:55:55.974Z,6.00
2018-09-19T12:58:24.458Z,7.10
2018-09-19T13:00:53.454Z,5.95
2018-09-19T13:03:22.005Z,6.17
2018-09-19T13:05:50.927Z,6.10
2018-09-19T13:08:19.350Z,5.60
2018-09-19T13:10:47.741Z,5.83
2018-09-19T13:13:16.217Z,5.78
2018-09-19T13:15:44.663Z,6.28
2018-09-19T13:18:13.093Z,5.65
2018-09-19T13:20:41.502Z,6.62
2018-09-19T13:23:09.997Z,5.42
2018-09-19T13:25:38.394Z,5.33
2018-09-19T13:28:06.841Z,6.05
2018-09-19T13:30:35.257Z,5.55
2018-09-19T13:33:03.732Z,5.72
2018-09-19T13:35:32.178Z,5.55
2018-09-19T13:38:00.584Z,5.95
2018-09-19T13:40:29.035Z,5.92
2018-09-19T13:42:57.490Z,6.50
2018-09-19T13:45:25.925Z,6.05
2018-09-19T13:47:54.316Z,6.60
2018-09-19T13:51:14.118Z,5.95
2018-09-19T13:53:42.530Z,6.40
2018-09-19T13:56:10.993Z,6.47
2018-09-19T13:58:39.387Z,6.50
2018-09-19T14:01:07.817Z,6.20
2018-09-19T14:03:36.242Z,5.58
2018-09-19T14:06:04.703Z,6.20
2018-09-19T14:08:33.118Z,6.22
2018-09-19T14:11:01.970Z,5.83
2018-09-19T14:13:30.409Z,6.58
2018-09-19T14:15:58.847Z,5.58
2018-09-19T14:18:27.265Z,6.50
2018-09-19T14:20:55.790Z,6.78
2018-09-19T14:23:24.226Z,6.25
2018-09-19T14:25:52.652Z,5.53
2018-09-19T14:28:21.121Z,7.00
2018-09-19T14:30:49.550Z,5.92
2018-09-19T14:33:17.977Z,5.97
2018-09-19T14:35:46.582Z,6.08
2018-09-19T14:38:14.933Z,6.72
2018-09-19T14:40:43.841Z,6.50
2018-09-19T14:43:12.294Z,6.47
2018-09-19T14:45:40.701Z,6.58
2018-09-19T14:48:09.124Z,6.47
2018-09-19T14:50:37.526Z,6.47
2018-09-19T14:53:06.104Z,6.20
2018-09-19T14:55:34.522Z,6.00
2018-09-19T14:58:03.872Z,6.53
2018-09-19T15:00:32.285Z,6.37
2018-09-19T15:03:00.789Z,6.25
2018-09-19T15:05:29.246Z,6.22
2018-09-19T15:07:57.727Z,6.72
2018-09-19T15:10:26.107Z,6.08
2018-09-19T15:12:54.541Z,6.08
2018-09-19T15:15:23.006Z,5.12
2018-09-19T15:17:51.429Z,5.42
2018-09-19T15:20:19.818Z,5.12
2018-09-19T15:22:48.330Z,6.28
2018-09-19T15:25:18.926Z,5.15
2018-09-19T15:27:47.836Z,5.10
2018-09-19T15:30:16.244Z,4.60
2018-09-19T15:32:44.659Z,4.17
2018-09-19T15:35:13.165Z,4.33
2018-09-19T15:37:41.566Z,4.75
2018-09-19T15:40:10.126Z,4.35
2018-09-19T15:42:38.534Z,7.05
2018-09-19T15:45:07.037Z,10.60
2018-09-19T15:47:35.434Z,5.45
2018-09-19T15:50:04.359Z,5.15
2018-09-19T15:52:32.926Z,6.62
2018-09-19T15:55:01.355Z,6.17
2018-09-19T15:57:29.928Z,5.55
2018-09-19T15:59:58.412Z,6.53
2018-09-19T16:02:26.974Z,5.87
2018-09-19T16:04:55.483Z,5.30
2018-09-19T16:07:23.977Z,4.80
2018-09-19T16:09:56.078Z,4.83
2018-09-19T16:12:24.470Z,4.55
2018-09-19T16:14:52.939Z,4.95
2018-09-19T16:17:21.341Z,5.22
2018-09-19T16:19:49.809Z,5.42
2018-09-19T16:22:18.235Z,5.20
2018-09-19T16:24:46.673Z,5.75
2018-09-19T16:27:15.189Z,6.37
2018-09-19T16:29:43.801Z,5.95
2018-09-19T16:32:12.289Z,5.60
2018-09-19T16:34:40.781Z,5.17
2018-09-19T16:37:09.350Z,5.60
2018-09-19T16:39:37.810Z,6.08
2018-09-19T16:42:06.406Z,5.35
2018-09-19T16:44:34.868Z,6.03
2018-09-19T16:47:03.810Z,5.95
2018-09-19T16:49:32.808Z,5.60
2018-09-19T16:52:01.863Z,5.87
2018-09-19T16:54:30.300Z,5.05
2018-09-19T16:56:58.753Z,4.90
2018-09-19T16:59:27.357Z,4.72
2018-09-19T17:01:55.961Z,5.05
2018-09-19T17:04:24.521Z,5.55
2018-09-19T17:06:52.989Z,5.70
2018-09-19T17:09:21.770Z,5.60
2018-09-19T17:11:50.196Z,5.53
2018-09-19T17:14:18.612Z,6.33
2018-09-19T17:16:47.054Z,6.10
2018-09-19T17:19:15.449Z,5.15
2018-09-19T17:21:43.971Z,5.78
2018-09-19T17:24:12.386Z,5.28
2018-09-19T17:26:40.802Z,5.10
2018-09-19T17:29:09.306Z,4.78
2018-09-19T17:31:37.881Z,4.65
2018-09-19T17:34:06.479Z,4.75
2018-09-19T17:36:35.006Z,5.30
2018-09-19T17:39:04.762Z,4.47
2018-09-19T17:41:33.246Z,4.72
2018-09-19T17:44:01.814Z,4.15
2018-09-19T17:46:30.429Z,4.90
2018-09-19T17:48:59.046Z,4.08
2018-09-19T17:51:27.463Z,4.90
2018-09-19T17:53:55.936Z,5.70
2018-09-19T17:56:24.441Z,6.42
2018-09-19T17:58:53.110Z,5.92
2018-09-19T18:01:21.639Z,5.00
2018-09-19T18:03:50.121Z,5.37
2018-09-19T18:06:18.717Z,5.12
2018-09-19T18:08:47.155Z,5.37
2018-09-19T18:11:15.626Z,5.87
2018-09-19T18:13:44.063Z,4.97
2018-09-19T18:16:12.557Z,5.45
2018-09-19T18:18:40.974Z,5.47
2018-09-19T18:21:09.445Z,5.42
2018-09-19T18:23:37.933Z,4.78
2018-09-19T18:26:06.335Z,4.40
2018-09-19T18:28:34.863Z,5.53
2018-09-19T18:31:03.282Z,5.80
2018-09-19T18:33:31.678Z,6.17
2018-09-19T18:36:00.633Z,5.72
2018-09-19T18:38:29.074Z,6.00
2018-09-19T18:40:57.662Z,6.20
2018-09-19T18:43:26.203Z,6.30
2018-09-19T18:45:54.725Z,6.25
2018-09-19T18:48:23.166Z,6.55
2018-09-19T18:50:51.687Z,6.45
2018-09-19T18:53:20.116Z,7.08
2018-09-19T18:55:48.570Z,6.87
2018-09-19T18:58:17.347Z,6.95
2018-09-19T19:00:46.062Z,6.95
2018-09-19T19:03:16.141Z,7.12
2018-09-19T19:05:44.571Z,7.17
2018-09-19T19:08:12.995Z,7.28
2018-09-19T19:10:41.445Z,7.40
2018-09-19T19:13:09.870Z,8.08
2018-09-19T19:15:38.269Z,7.83
2018-09-19T19:18:06.881Z,8.60
2018-09-19T19:20:35.887Z,8.63
2018-09-19T19:23:04.450Z,8.85
2018-09-19T19:25:32.974Z,8.75
2018-09-19T19:28:02.049Z,9.23
2018-09-19T19:30:30.559Z,9.08
2018-09-19T19:32:58.961Z,9.38
2018-09-19T19:35:27.502Z,9.83
2018-09-19T19:37:55.993Z,8.35
2018-09-19T19:40:24.379Z,9.65
2018-09-19T19:42:52.814Z,9.48
2018-09-19T19:45:21.266Z,10.63
2018-09-19T19:47:49.697Z,11.90
2018-09-19T19:50:18.125Z,10.13
2018-09-19T19:52:46.571Z,10.63
2018-09-19T19:55:14.974Z,9.65
2018-09-19T19:57:43.626Z,11.53
2018-09-19T20:00:12.065Z,10.90
2018-09-19T20:02:40.513Z,11.18
2018-09-19T20:05:08.943Z,12.60
2018-09-19T20:07:37.337Z,11.40
2018-09-19T20:10:05.844Z,10.43
2018-09-19T20:12:34.290Z,10.48
2018-09-19T20:15:02.905Z,10.45
2018-09-19T20:17:31.359Z,10.18
2018-09-19T20:20:00.561Z,10.58
2018-09-19T20:22:29.107Z,9.30
2018-09-19T20:24:57.883Z,9.78
2018-09-19T20:27:26.438Z,10.20
2018-09-19T20:29:55.048Z,10.72
2018-09-19T20:32:23.541Z,10.43
2018-09-19T20:34:52.021Z,10.32
2018-09-19T20:37:20.529Z,11.25
2018-09-19T20:39:49.062Z,10.98
2018-09-19T20:42:17.494Z,10.35
2018-09-19T20:44:45.954Z,10.03
2018-09-19T20:47:14.447Z,11.60
2018-09-19T20:49:42.874Z,13.40
2018-09-19T20:52:11.308Z,10.63
2018-09-19T20:54:39.810Z,9.70
2018-09-19T20:57:08.330Z,9.95
2018-09-19T20:59:38.956Z,8.98
2018-09-19T21:02:07.377Z,10.13
2018-09-19T21:04:35.973Z,9.70
2018-09-19T21:07:04.221Z,9.88
2018-09-19T21:09:32.601Z,10.10
2018-09-19T21:12:01.024Z,8.83
2018-09-19T21:14:29.436Z,9.30
2018-09-19T21:16:57.884Z,9.48
2018-09-19T21:19:26.266Z,9.48
2018-09-19T21:21:54.721Z,8.48
2018-09-19T21:24:23.238Z,9.83
2018-09-19T21:26:51.673Z,8.80
2018-09-19T21:29:20.098Z,9.43
2018-09-19T21:31:48.543Z,10.38
2018-09-19T21:34:17.021Z,9.10
2018-09-19T21:36:45.416Z,8.90
2018-09-19T21:39:13.805Z,8.73
2018-09-19T21:41:42.241Z,9.43
2018-09-19T21:44:10.650Z,9.05
2018-09-19T21:46:39.117Z,9.45
2018-09-19T21:49:07.524Z,9.75
2018-09-19T21:51:36.011Z,8.98
2018-09-19T21:54:04.421Z,9.58
2018-09-19T21:56:32.818Z,8.80
2018-09-19T21:59:01.262Z,8.93
2018-09-19T22:01:34.881Z,8.70
2018-09-19T22:04:03.346Z,8.98
2018-09-19T22:06:31.770Z,9.15
2018-09-19T22:09:00.215Z,9.50
2018-09-19T22:11:28.650Z,8.35
2018-09-19T22:13:57.114Z,8.58
2018-09-19T22:16:25.514Z,7.90
2018-09-19T22:18:53.993Z,8.97
2018-09-19T22:21:22.373Z,8.17
2018-09-19T22:23:50.849Z,9.17
2018-09-19T22:26:19.298Z,11.10
2018-09-19T22:28:47.723Z,9.55
2018-09-19T22:31:16.152Z,7.75
2018-09-19T22:33:44.570Z,7.00
2018-09-19T22:36:13.049Z,7.40
2018-09-19T22:38:41.468Z,6.73
2018-09-19T22:41:09.910Z,6.83
2018-09-19T22:43:38.346Z,7.40
2018-09-19T22:46:06.938Z,6.28
2018-09-19T22:48:35.367Z,6.73
2018-09-19T22:51:03.813Z,6.87
2018-09-19T22:53:32.237Z,7.37
2018-09-19T22:56:00.676Z,6.50
2018-09-19T22:58:29.070Z,6.80
2018-09-19T23:00:57.493Z,6.97
2018-09-19T23:03:25.901Z,6.70
2018-09-19T23:05:54.329Z,7.43
2018-09-19T23:08:22.721Z,7.63
2018-09-19T23:10:51.137Z,7.03
2018-09-19T23:13:19.554Z,6.63
2018-09-19T23:15:47.973Z,6.63
2018-09-19T23:18:16.392Z,6.80
2018-09-19T23:20:44.841Z,6.60
2018-09-19T23:23:13.400Z,6.87
2018-09-19T23:25:41.850Z,6.53
2018-09-19T23:28:10.247Z,6.23
2018-09-19T23:30:39.404Z,6.77
2018-09-19T23:33:07.858Z,6.37
2018-09-19T23:35:36.305Z,6.10
2018-09-19T23:38:05.517Z,6.43
2018-09-19T23:40:34.622Z,6.43
2018-09-19T23:43:03.013Z,6.47
2018-09-19T23:45:31.461Z,6.33
2018-09-19T23:47:59.854Z,6.17
2018-09-19T23:50:28.254Z,6.47
2018-09-19T23:52:56.677Z,6.20
2018-09-19T23:55:25.114Z,6.37
2018-09-19T23:57:53.591Z,6.83
